Historyczne dane pomiarowe

Dodano dane terminowe – wersja testowa.

Dane z okresu 1951-2019

Wersja bazy: 1.34 [2019-03-16, lista zmian], aktualizacja planowana na 2019-04-15

Dane meteo z obszaru Polski uzyskane na podstawie danych udostępnionych przez Instytut Meteorologii i Gospodarki Wodnej – Państwowy Instytut Badawczy.

 

Wybierz Datę:    

       

TemperaturaWilgotnośćZachmurzenieWiatrCiśnienieWidzialnośćZjawiska
 Data    tng td wb rh cc ccl cl cm ch dir g1 g2 mslp ppp      
1994-08-10 00:00:00 15.4--- 15.1 15.298wxwx1wx--1011.7 998.8 0.0---wx
1994-08-10 01:00:00 14.8--- 14.6 14.799wxwx0wx--1011.7 998.7----wx
1994-08-10 02:00:00 14.4--- 14.2 14.399wxwx0wx--1011.7 998.7----wxw1
1994-08-10 03:00:00 13.8--- 13.6 13.799wxwx0wx--1011.5 998.5----wx
1994-08-10 04:00:00 14.4--- 14.4 14.4100wxwx0wx--1011.4 998.4----wxw1
1994-08-10 05:00:00 14.4--- 14.4 14.4100wxwxwx1wx--1011.3 998.3----wxw1
1994-08-10 06:00:00 15.0--- 15.0 15.0100wxwxwx1wx--1011.8 998.8 0.0---wxw1
1994-08-10 07:00:00 16.4--- 16.4 16.4100wxwxwx0wx--1011.9 999.0----wxw1
1994-08-10 08:00:00 17.5--- 17.5 17.5100wxwxwx1wx--1011.7 998.9----wx
1994-08-10 09:00:00 20.4--- 18.0 18.886wxwxwx0wx--1011.7 999.0----wxw1
1994-08-10 10:00:00 22.4--- 15.3 17.964wxwxwxwx1wx--1011.3 998.7----wx
1994-08-10 11:00:00 23.7--- 14.5 17.956wxwxwxwx3wx--1011.2 998.6----wx
1994-08-10 12:00:00 24.0--- 12.3 16.948wxwxwxwx2wx--1011.0 998.4 0.0---wxw1
1994-08-10 13:00:00 25.0--- 11.8 17.044wxwxwxwx2wx--1010.1 997.6----wx
1994-08-10 14:00:00 25.6--- 11.3 17.041wxwxwxwx4wx--1009.6 997.1----wx
1994-08-10 15:00:00 25.5--- 12.0 17.343wxwxwxwx3wx--1009.5 997.0----wx
1994-08-10 16:00:00 25.4--- 10.8 16.740wxwxwxwx1wx--1009.5 997.0----wx
1994-08-10 17:00:00 24.2--- 14.5 18.155wxwxwx0wx--1009.4 996.9----wx
1994-08-10 18:00:00 21.1--- 15.6 17.671wxwxwx0wx--1009.5 996.8 0.0---wx
1994-08-10 19:00:00 18.3--- 15.1 16.382wxwxwxwx0wx--1009.9 997.1----wx
1994-08-10 20:00:00 16.8--- 14.9 15.688wxwxwxwx0wx--1009.9 997.0----wx
1994-08-10 21:00:00 16.5--- 14.7 15.489wxwxwx2wx--1009.9 997.0----wx
1994-08-10 22:00:00 15.7--- 13.9 14.689wxwx1wx--1010.2 997.3----wx
1994-08-10 23:00:00 16.3--- 13.1 14.481wxwx2wx--1009.6 996.7----wx

 

Źródłem pochodzenia danych jest Instytut Meteorologii i Gospodarki Wodnej – Państwowy Instytut Badawczy. Dane Instytutu Meteorologii i Gospodarki Wodnej – Państwowego Instytutu Badawczego zostały przetworzone.

Dane źródłowe można odnaleźć na stronie https://dane.imgw.pl